createdAt,value
2022-07-29T11:37:50.794Z,489.38
2022-07-29T11:38:50.453Z,506.25
2022-07-29T11:39:54.913Z,489.38
2022-07-29T11:40:59.377Z,511.88
2022-07-29T11:42:05.253Z,483.75
2022-07-29T11:43:08.254Z,478.12
2022-07-29T11:44:12.693Z,478.12
2022-07-29T11:46:25.151Z,433.12
2022-07-29T11:47:26.025Z,410.62
2022-07-29T11:48:32.347Z,393.75
2022-07-29T11:49:34.911Z,376.88
2022-07-29T11:50:44.499Z,360.00
2022-07-29T11:53:52.778Z,309.38
2022-07-29T11:54:58.557Z,298.12
2022-07-29T11:56:01.346Z,281.25
2022-07-29T11:57:05.745Z,275.62
2022-07-29T11:58:10.166Z,264.38
2022-07-29T11:59:15.214Z,258.75
2022-07-29T12:00:18.976Z,253.12
2022-07-29T12:01:23.386Z,253.12
2022-07-29T12:03:32.743Z,253.12
2022-07-29T12:04:36.626Z,253.12
2022-07-29T12:05:48.279Z,253.12
2022-07-29T12:06:45.428Z,253.12
2022-07-29T12:07:02.231Z,343.12
2022-07-29T12:07:03.545Z,253.12
2022-07-29T12:07:49.848Z,258.75
2022-07-29T12:08:54.298Z,258.75
2022-07-29T12:09:58.658Z,264.38
2022-07-29T12:11:03.048Z,270.00
2022-07-29T12:12:07.797Z,275.62
2022-07-29T12:13:11.893Z,281.25
2022-07-29T12:14:16.289Z,281.25
2022-07-29T12:15:20.679Z,286.88
2022-07-29T12:16:29.620Z,286.88
2022-07-29T12:17:30.503Z,281.25
2022-07-29T12:18:33.910Z,275.62
2022-07-29T12:19:38.296Z,275.62
2022-07-29T12:20:42.699Z,275.62
2022-07-29T12:21:56.150Z,275.62
2022-07-29T12:22:51.535Z,281.25
2022-07-29T12:23:55.919Z,281.25
2022-07-29T12:25:11.409Z,286.88
2022-07-29T12:26:04.714Z,286.88
2022-07-29T12:27:09.131Z,292.50
2022-07-29T12:28:14.223Z,292.50
2022-07-29T12:29:19.972Z,298.12
2022-07-29T12:30:22.335Z,298.12
2022-07-29T12:31:43.873Z,303.75
2022-07-29T12:32:31.175Z,303.75
2022-07-29T12:33:35.561Z,303.75
2022-07-29T12:34:39.984Z,303.75
2022-07-29T12:35:45.800Z,303.75
2022-07-29T12:36:48.812Z,303.75
2022-07-29T12:37:53.205Z,298.12
2022-07-29T12:38:57.622Z,292.50
2022-07-29T12:40:02.032Z,286.88
2022-07-29T12:41:06.442Z,281.25
2022-07-29T12:42:13.795Z,275.62
2022-07-29T12:43:15.264Z,281.25
2022-07-29T12:44:19.653Z,281.25
2022-07-29T12:45:24.043Z,281.25
2022-07-29T12:46:28.466Z,286.88
2022-07-29T12:47:32.835Z,292.50
2022-07-29T12:48:37.273Z,292.50
2022-07-29T12:49:41.652Z,298.12
2022-07-29T12:50:46.026Z,303.75
2022-07-29T12:51:50.438Z,303.75
2022-07-29T12:52:54.824Z,303.75
2022-07-29T12:53:59.277Z,303.75
2022-07-29T12:55:03.666Z,303.75
2022-07-29T12:56:26.544Z,303.75
2022-07-29T12:57:20.034Z,303.75
2022-07-29T12:58:16.886Z,298.12
2022-07-29T12:59:21.278Z,292.50
2022-07-29T13:00:25.746Z,286.88
2022-07-29T13:01:30.086Z,281.25
2022-07-29T13:02:34.515Z,281.25
2022-07-29T13:03:38.927Z,275.62
2022-07-29T13:04:43.315Z,281.25
2022-07-29T13:07:14.693Z,281.25
2022-07-29T13:08:20.182Z,286.88
2022-07-29T13:09:22.522Z,286.88
2022-07-29T13:10:26.971Z,281.25
2022-07-29T13:11:31.427Z,281.25
2022-07-29T13:12:35.858Z,281.25
2022-07-29T13:13:40.331Z,281.25
2022-07-29T13:14:44.770Z,281.25
2022-07-29T13:15:49.201Z,275.62
2022-07-29T13:16:53.677Z,270.00
2022-07-29T13:17:58.082Z,270.00
2022-07-29T13:19:02.550Z,258.75
2022-07-29T13:20:08.844Z,253.12
2022-07-29T13:21:11.441Z,241.88
2022-07-29T13:22:15.896Z,236.25
2022-07-29T13:23:20.342Z,230.62
2022-07-29T13:24:24.805Z,225.00
2022-07-29T13:25:29.250Z,219.38
2022-07-29T13:26:33.688Z,213.75
2022-07-29T13:27:38.123Z,208.12
2022-07-29T13:28:44.172Z,208.12
2022-07-29T13:29:47.052Z,202.50
2022-07-29T13:30:51.526Z,202.50
2022-07-29T13:31:56.164Z,202.50
2022-07-29T13:33:00.395Z,202.50
2022-07-29T13:34:04.863Z,202.50
2022-07-29T13:35:09.316Z,202.50
2022-07-29T13:36:13.774Z,196.88
2022-07-29T13:37:18.257Z,196.88
2022-07-29T13:38:22.654Z,196.88
2022-07-29T13:39:27.134Z,196.88
2022-07-29T13:40:31.595Z,196.88
2022-07-29T13:41:36.034Z,196.88
2022-07-29T13:42:40.502Z,196.88
2022-07-29T13:43:44.947Z,196.88
2022-07-29T13:44:49.403Z,196.88
2022-07-29T13:45:53.890Z,196.88
2022-07-29T13:46:58.304Z,196.88
2022-07-29T13:48:02.774Z,202.50
2022-07-29T13:49:07.257Z,208.12
2022-07-29T13:50:11.692Z,225.00
2022-07-29T13:51:16.126Z,236.25
2022-07-29T13:52:20.600Z,241.88
2022-07-29T13:53:26.861Z,247.50
2022-07-29T13:54:29.518Z,241.88
2022-07-29T13:55:33.958Z,236.25
2022-07-29T13:56:38.424Z,236.25
2022-07-29T13:57:42.858Z,230.62
2022-07-29T13:58:47.328Z,230.62
2022-07-29T13:59:54.126Z,225.00
2022-07-29T14:00:56.292Z,219.38
2022-07-29T14:02:01.126Z,208.12
2022-07-29T14:03:05.170Z,196.88
2022-07-29T14:04:09.693Z,185.62
2022-07-29T14:05:14.087Z,174.38
2022-07-29T14:06:18.548Z,168.75
2022-07-29T14:07:22.997Z,163.12
2022-07-29T14:08:27.472Z,163.12
2022-07-29T14:09:37.232Z,163.12
2022-07-29T14:10:36.390Z,163.12
2022-07-29T14:11:40.839Z,168.75
2022-07-29T14:12:45.280Z,168.75
2022-07-29T14:13:49.750Z,174.38
2022-07-29T14:14:54.218Z,174.38
2022-07-29T14:15:58.672Z,180.00
2022-07-29T14:17:03.181Z,191.25
2022-07-29T14:18:07.590Z,196.88
2022-07-29T14:19:12.032Z,208.12
2022-07-29T14:20:16.560Z,219.38
2022-07-29T14:21:20.981Z,230.62
2022-07-29T14:22:25.672Z,236.25
2022-07-29T14:23:29.912Z,241.88
2022-07-29T14:24:36.423Z,247.50
2022-07-29T14:25:38.861Z,258.75
2022-07-29T14:26:43.332Z,258.75
2022-07-29T14:27:47.784Z,264.38
2022-07-29T14:28:52.245Z,270.00
2022-07-29T14:29:56.718Z,275.62
2022-07-29T14:31:01.193Z,281.25
2022-07-29T14:32:05.678Z,292.50
2022-07-29T14:33:10.092Z,309.38
2022-07-29T14:34:14.543Z,326.25
2022-07-29T14:35:19.033Z,343.12
2022-07-29T14:36:23.491Z,360.00
2022-07-29T14:37:27.984Z,360.00
2022-07-29T14:38:32.423Z,348.75
2022-07-29T14:39:42.303Z,343.12
2022-07-29T14:40:41.356Z,337.50
2022-07-29T14:41:45.805Z,337.50
2022-07-29T14:42:50.284Z,337.50
2022-07-29T14:43:54.734Z,326.25
2022-07-29T14:44:59.206Z,320.62
2022-07-29T14:46:08.241Z,309.38
2022-07-29T14:47:08.344Z,292.50
2022-07-29T14:48:12.593Z,275.62
2022-07-29T14:49:17.118Z,264.38
2022-07-29T14:50:27.585Z,258.75
2022-07-29T14:52:51.877Z,241.88
2022-07-29T14:53:56.318Z,241.88
2022-07-29T14:55:00.758Z,236.25
2022-07-29T14:56:21.208Z,230.62
2022-07-29T14:57:09.658Z,225.00
2022-07-29T14:58:16.569Z,225.00
2022-07-29T14:59:18.508Z,219.38
2022-07-29T15:00:22.962Z,219.38
2022-07-29T15:01:27.477Z,219.38
2022-07-29T15:02:52.477Z,225.00
2022-07-29T15:03:36.313Z,225.00
2022-07-29T15:04:40.688Z,230.62
2022-07-29T15:05:45.138Z,236.25
2022-07-29T15:06:49.579Z,236.25
2022-07-29T15:07:54.010Z,236.25
2022-07-29T15:08:58.476Z,241.88
2022-07-29T15:10:03.015Z,247.50
2022-07-29T15:11:07.398Z,247.50
2022-07-29T15:12:11.820Z,253.12
2022-07-29T15:13:16.239Z,258.75
2022-07-29T15:14:20.672Z,264.38
2022-07-29T15:15:25.124Z,270.00
2022-07-29T15:16:29.594Z,275.62
2022-07-29T15:17:33.980Z,286.88
2022-07-29T15:18:38.421Z,298.12
2022-07-29T15:19:44.941Z,309.38
2022-07-29T15:20:47.328Z,315.00
2022-07-29T15:21:51.750Z,326.25
2022-07-29T15:22:56.213Z,343.12
2022-07-29T15:24:00.644Z,354.38
2022-07-29T15:25:05.104Z,371.25
2022-07-29T15:26:09.560Z,388.12
2022-07-29T15:27:14.021Z,405.00
2022-07-29T15:28:18.450Z,421.88
2022-07-29T15:29:22.901Z,444.38
2022-07-29T15:30:32.326Z,478.12
2022-07-29T15:31:31.917Z,506.25
2022-07-29T15:32:36.233Z,540.00
2022-07-29T15:33:40.672Z,579.38
2022-07-29T15:34:45.103Z,641.25
2022-07-29T15:35:49.561Z,894.38
2022-07-29T15:36:54.271Z,871.88
2022-07-29T15:37:58.433Z,905.62
2022-07-29T15:39:02.909Z,1220.62
2022-07-29T15:40:07.321Z,1355.62
2022-07-29T15:41:11.764Z,1580.62
2022-07-29T15:42:16.222Z,1501.88
2022-07-29T15:43:20.643Z,1198.12
2022-07-29T15:44:25.098Z,1136.25
2022-07-29T15:45:32.454Z,1451.25
2022-07-29T15:46:33.994Z,1794.38
2022-07-29T15:47:38.415Z,1805.62
2022-07-29T15:48:42.886Z,1918.12
2022-07-29T15:49:49.472Z,1833.75
2022-07-29T15:50:51.740Z,1923.75
2022-07-29T15:51:59.874Z,1783.12
2022-07-29T15:53:00.575Z,1726.88
2022-07-29T15:54:04.999Z,1580.62
2022-07-29T15:55:09.414Z,1338.75
2022-07-29T15:56:13.847Z,1383.75
2022-07-29T15:57:18.275Z,1181.25
2022-07-29T15:58:22.716Z,1147.50
2022-07-29T15:59:27.148Z,1091.25
2022-07-29T16:00:31.581Z,877.50
2022-07-29T16:01:36.029Z,984.38
2022-07-29T16:02:40.447Z,900.00
2022-07-29T16:03:46.415Z,838.12
2022-07-29T16:04:49.297Z,855.00
2022-07-29T16:05:53.748Z,883.12
2022-07-29T16:06:58.387Z,933.75
2022-07-29T16:08:02.605Z,776.25
2022-07-29T16:09:07.057Z,703.12
2022-07-29T16:10:11.481Z,624.38
2022-07-29T16:11:15.929Z,545.62
2022-07-29T16:12:20.350Z,472.50
2022-07-29T16:13:24.794Z,410.62
2022-07-29T16:14:29.226Z,360.00
2022-07-29T16:15:33.629Z,320.62
2022-07-29T16:16:38.146Z,298.12
2022-07-29T16:17:42.500Z,275.62
2022-07-29T16:18:46.951Z,258.75
2022-07-29T16:19:51.382Z,253.12
2022-07-29T16:20:55.833Z,247.50
2022-07-29T16:22:00.301Z,253.12
2022-07-29T16:23:04.720Z,253.12
2022-07-29T16:24:09.140Z,253.12
2022-07-29T16:25:13.578Z,253.12
2022-07-29T16:26:18.019Z,247.50
2022-07-29T16:27:22.451Z,241.88
2022-07-29T16:28:26.877Z,241.88
2022-07-29T16:29:31.301Z,241.88
2022-07-29T16:30:35.722Z,247.50
2022-07-29T16:31:40.196Z,275.62
2022-07-29T16:32:44.592Z,264.38
2022-07-29T16:33:55.004Z,275.62
2022-07-29T16:34:53.463Z,286.88
2022-07-29T16:35:57.898Z,303.75
2022-07-29T16:37:02.668Z,315.00
2022-07-29T16:39:32.693Z,354.38
2022-07-29T16:40:37.147Z,438.75
2022-07-29T16:41:48.054Z,399.38
2022-07-29T16:42:52.525Z,399.38
2022-07-29T16:43:56.963Z,399.38
2022-07-29T16:45:01.396Z,393.75
2022-07-29T16:46:05.902Z,393.75
2022-07-29T16:47:10.326Z,393.75
2022-07-29T16:48:14.764Z,399.38
2022-07-29T16:49:19.701Z,410.62
2022-07-29T16:50:23.646Z,455.62
2022-07-29T16:51:28.108Z,534.38
2022-07-29T16:52:32.548Z,455.62
2022-07-29T16:53:37.001Z,388.12
2022-07-29T16:54:41.431Z,354.38
2022-07-29T16:55:45.887Z,343.12
2022-07-29T16:56:50.375Z,326.25
2022-07-29T16:57:54.818Z,309.38
2022-07-29T16:58:59.270Z,303.75
2022-07-29T17:00:03.706Z,292.50
2022-07-29T17:01:08.180Z,298.12
2022-07-29T17:02:12.741Z,309.38
2022-07-29T17:03:17.061Z,331.88
2022-07-29T17:04:21.530Z,365.62
2022-07-29T17:05:25.967Z,405.00
2022-07-29T17:06:30.412Z,658.12
2022-07-29T17:07:34.870Z,489.38
2022-07-29T17:08:39.318Z,517.50
2022-07-29T17:09:43.761Z,601.88
2022-07-29T17:10:48.220Z,838.12
2022-07-29T17:11:54.869Z,1119.38
2022-07-29T17:12:57.135Z,1198.12
2022-07-29T17:14:01.572Z,1158.75
2022-07-29T17:15:06.065Z,1170.00
2022-07-29T17:16:10.535Z,1158.75
2022-07-29T17:17:15.667Z,1186.88
2022-07-29T17:18:19.433Z,1136.25
2022-07-29T17:19:23.905Z,995.62
2022-07-29T17:20:28.342Z,562.50
2022-07-29T17:21:32.802Z,556.88
2022-07-29T17:22:37.267Z,551.25
2022-07-29T17:23:41.735Z,551.25
2022-07-29T17:24:46.172Z,562.50
2022-07-29T17:25:50.624Z,573.75
2022-07-29T17:26:55.483Z,585.00
2022-07-29T17:28:01.091Z,1040.62
2022-07-29T17:29:04.005Z,680.62
2022-07-29T17:30:08.444Z,1125.00
2022-07-29T17:31:12.936Z,1192.50
2022-07-29T17:32:17.395Z,1051.88
2022-07-29T17:33:21.835Z,1226.25
2022-07-29T17:34:26.279Z,1248.75
2022-07-29T17:35:30.715Z,1175.62
2022-07-29T17:36:35.156Z,1175.62
2022-07-29T17:37:39.641Z,1215.00
2022-07-29T17:38:44.107Z,1130.62
2022-07-29T17:39:48.544Z,1108.12
2022-07-29T17:40:52.996Z,1068.75
2022-07-29T17:41:57.454Z,1018.12
2022-07-29T17:43:01.902Z,1023.75
2022-07-29T17:44:06.336Z,1035.00
2022-07-29T17:45:10.785Z,1051.88
2022-07-29T17:46:15.254Z,1023.75
2022-07-29T17:47:19.687Z,1006.88
2022-07-29T17:48:24.128Z,1006.88
2022-07-29T17:49:28.590Z,984.38
2022-07-29T17:50:33.023Z,950.62
2022-07-29T17:51:37.498Z,956.25
2022-07-29T17:52:41.960Z,922.50
2022-07-29T17:53:46.402Z,939.38
2022-07-29T17:54:50.846Z,922.50
2022-07-29T17:55:55.289Z,928.12
2022-07-29T17:57:00.078Z,855.00
2022-07-29T17:58:04.229Z,883.12
2022-07-29T17:59:08.680Z,826.88
2022-07-29T18:00:13.120Z,742.50
2022-07-29T18:01:17.643Z,545.62
2022-07-29T18:02:22.082Z,551.25
2022-07-29T18:03:26.551Z,596.25
2022-07-29T18:04:30.928Z,590.62
2022-07-29T18:05:35.360Z,495.00
2022-07-29T18:06:39.800Z,371.25
2022-07-29T18:07:44.262Z,371.25
2022-07-29T18:08:48.711Z,382.50
2022-07-29T18:09:56.313Z,410.62
2022-07-29T18:10:57.613Z,388.12
2022-07-29T18:12:02.051Z,343.12
2022-07-29T18:13:06.514Z,343.12
2022-07-29T18:14:10.964Z,348.75
2022-07-29T18:15:15.414Z,360.00
2022-07-29T18:16:20.020Z,371.25
2022-07-29T18:17:46.009Z,371.25
2022-07-29T18:18:28.804Z,360.00
2022-07-29T18:19:33.263Z,343.12
2022-07-29T18:20:37.703Z,315.00
2022-07-29T18:21:51.958Z,303.75
2022-07-29T18:22:46.604Z,303.75
2022-07-29T18:23:51.074Z,292.50
2022-07-29T18:26:21.427Z,292.50
2022-07-29T18:27:25.917Z,309.38
2022-07-29T18:28:30.360Z,315.00
2022-07-29T18:29:34.830Z,309.38
2022-07-29T18:30:39.280Z,298.12
2022-07-29T18:31:43.800Z,292.50
2022-07-29T18:33:18.165Z,264.38
2022-07-29T18:33:54.492Z,236.25
2022-07-29T18:34:57.100Z,180.00
2022-07-29T18:36:11.263Z,140.62
2022-07-29T18:37:06.001Z,129.38
2022-07-29T18:38:10.491Z,118.12
2022-07-29T18:39:19.182Z,106.88
2022-07-29T18:40:19.410Z,101.25
2022-07-29T18:41:23.852Z,95.62
2022-07-29T18:42:28.302Z,95.62
2022-07-29T18:43:32.770Z,84.38
2022-07-29T18:44:43.589Z,73.12
2022-07-29T18:45:42.597Z,67.50
2022-07-29T18:46:47.437Z,61.88
2022-07-29T18:47:50.624Z,61.88
2022-07-29T18:48:55.123Z,90.00
2022-07-29T18:49:59.542Z,106.88
2022-07-29T18:51:09.070Z,112.50
2022-07-29T18:52:08.463Z,84.38
2022-07-29T18:53:12.971Z,67.50
2022-07-29T18:54:17.507Z,45.00
2022-07-29T18:55:21.883Z,33.75
2022-07-29T18:56:26.345Z,28.12
2022-07-29T18:57:54.959Z,28.12
2022-07-29T18:58:35.270Z,28.12
2022-07-29T18:59:39.734Z,22.50
2022-07-29T19:00:44.193Z,22.50
2022-07-29T19:01:48.839Z,22.50
2022-07-29T19:02:53.339Z,22.50
2022-07-29T19:03:57.579Z,16.88
2022-07-29T19:05:02.064Z,16.88
2022-07-29T19:06:06.513Z,16.88
2022-07-29T19:07:10.964Z,16.88
2022-07-29T19:08:15.434Z,16.88
2022-07-29T19:09:19.884Z,11.25
2022-07-29T19:10:24.348Z,11.25
2022-07-29T19:11:28.805Z,11.25
2022-07-29T19:12:33.256Z,11.25
2022-07-29T19:13:37.759Z,11.25
2022-07-29T19:14:42.216Z,11.25
2022-07-29T19:15:46.716Z,5.62
2022-07-29T19:16:51.174Z,5.62
2022-07-29T19:18:00.600Z,5.62
2022-07-29T19:19:00.097Z,5.62
2022-07-29T19:20:04.550Z,5.62
2022-07-29T19:21:09.007Z,5.62
2022-07-29T19:22:13.477Z,5.62
2022-07-29T19:23:17.975Z,5.62
2022-07-29T19:24:22.437Z,5.62
2022-07-29T19:25:26.908Z,0.00
2022-07-29T19:26:31.359Z,0.00
2022-07-29T19:27:35.809Z,0.00
2022-07-29T19:28:40.288Z,0.00
2022-07-29T19:29:44.748Z,0.00
2022-07-29T19:30:49.247Z,0.00
2022-07-29T19:31:53.649Z,0.00
2022-07-29T19:32:58.100Z,0.00
2022-07-29T19:34:02.588Z,0.00
2022-07-29T19:35:07.040Z,0.00
2022-07-29T19:36:11.501Z,0.00
2022-07-29T19:37:15.976Z,0.00
2022-07-29T19:38:20.450Z,0.00
2022-07-29T19:39:34.740Z,0.00
2022-07-29T19:40:29.391Z,0.00
2022-07-29T19:41:33.847Z,0.00
2022-07-29T19:42:38.311Z,0.00
2022-07-29T19:43:51.084Z,0.00
2022-07-29T19:44:47.290Z,0.00
2022-07-29T19:45:51.772Z,0.00
2022-07-29T19:46:56.524Z,0.00
2022-07-29T19:48:01.645Z,0.00
2022-07-29T19:49:05.242Z,0.00
2022-07-29T19:50:09.669Z,0.00
2022-07-29T19:51:14.130Z,0.00
2022-07-29T19:52:18.620Z,0.00
2022-07-29T19:53:23.070Z,0.00
2022-07-29T19:54:27.542Z,0.00
2022-07-29T19:55:32.000Z,0.00
2022-07-29T19:56:36.455Z,0.00
2022-07-29T19:57:41.965Z,0.00
2022-07-29T19:58:45.383Z,0.00
2022-07-29T19:59:49.843Z,0.00
2022-07-29T20:00:54.311Z,0.00
2022-07-29T20:01:58.802Z,0.00
2022-07-29T20:03:03.283Z,0.00
2022-07-29T20:04:07.703Z,0.00
2022-07-29T20:05:12.186Z,0.00
2022-07-29T20:06:16.645Z,0.00
2022-07-29T20:07:21.123Z,0.00
2022-07-29T20:08:25.594Z,0.00
2022-07-29T20:09:30.065Z,0.00
2022-07-29T20:10:34.535Z,0.00
2022-07-29T20:13:04.942Z,0.00
2022-07-29T20:14:09.429Z,0.00
2022-07-29T20:15:16.305Z,0.00
2022-07-29T20:16:18.410Z,0.00
2022-07-29T20:17:22.821Z,0.00
2022-07-29T20:18:27.271Z,0.00
2022-07-29T20:19:31.772Z,0.00
2022-07-29T20:20:36.234Z,0.00
2022-07-29T20:21:40.703Z,0.00
2022-07-29T20:22:45.173Z,0.00
2022-07-29T20:23:49.685Z,0.00
2022-07-29T20:24:54.145Z,0.00
2022-07-29T20:25:58.602Z,0.00
2022-07-29T20:27:03.333Z,0.00
2022-07-29T20:28:07.552Z,0.00
2022-07-29T20:29:12.043Z,0.00
2022-07-29T20:30:16.504Z,0.00
2022-07-29T20:31:21.037Z,0.00
2022-07-29T20:32:25.473Z,0.00
2022-07-29T20:33:29.937Z,0.00
2022-07-29T20:34:34.433Z,0.00
2022-07-29T20:35:38.905Z,0.00
2022-07-29T20:36:43.386Z,0.00
2022-07-29T20:37:52.273Z,0.00
2022-07-29T20:38:52.334Z,0.00
2022-07-29T20:39:56.812Z,0.00
2022-07-29T20:41:01.284Z,0.00
2022-07-29T20:42:05.766Z,0.00
2022-07-29T20:43:10.236Z,0.00
2022-07-29T20:44:14.695Z,0.00
2022-07-29T20:45:19.207Z,0.00
2022-07-29T20:46:23.706Z,0.00
2022-07-29T20:47:28.126Z,0.00
2022-07-29T20:48:32.587Z,0.00
2022-07-29T20:49:37.098Z,0.00
2022-07-29T20:50:41.557Z,0.00
2022-07-29T20:51:46.025Z,0.00
2022-07-29T20:52:50.488Z,0.00
2022-07-29T20:53:54.966Z,0.00
2022-07-29T20:54:59.458Z,0.00
2022-07-29T20:56:03.927Z,0.00
2022-07-29T20:57:08.386Z,0.00
2022-07-29T20:58:12.861Z,0.00
2022-07-29T20:59:17.820Z,0.00
2022-07-29T21:00:21.830Z,0.00
2022-07-29T21:01:26.400Z,0.00
2022-07-29T21:02:30.814Z,0.00
2022-07-29T21:03:35.239Z,0.00
2022-07-29T21:04:39.700Z,0.00
2022-07-29T21:05:44.187Z,0.00
2022-07-29T21:06:48.677Z,0.00
2022-07-29T21:07:56.578Z,0.00
2022-07-29T21:08:57.607Z,0.00
2022-07-29T21:10:02.080Z,0.00
2022-07-29T21:11:06.592Z,0.00
2022-07-29T21:12:11.063Z,0.00
2022-07-29T21:13:15.550Z,0.00
2022-07-29T21:14:20.012Z,0.00
2022-07-29T21:15:24.616Z,0.00
2022-07-29T21:16:29.034Z,0.00
2022-07-29T21:17:33.442Z,0.00
2022-07-29T21:18:37.912Z,0.00
2022-07-29T21:19:42.391Z,0.00
2022-07-29T21:20:46.883Z,0.00
2022-07-29T21:21:51.341Z,0.00
2022-07-29T21:22:55.823Z,0.00
2022-07-29T21:24:00.292Z,0.00
2022-07-29T21:25:04.752Z,0.00
2022-07-29T21:26:12.819Z,0.00
2022-07-29T21:27:20.700Z,0.00
2022-07-29T21:28:18.184Z,0.00
2022-07-29T21:29:22.649Z,0.00
2022-07-29T21:30:27.133Z,0.00
2022-07-29T21:31:31.652Z,0.00
2022-07-29T21:32:36.147Z,0.00
2022-07-29T21:33:40.573Z,0.00
2022-07-29T21:34:45.056Z,0.00
2022-07-29T21:36:54.063Z,0.00
2022-07-29T21:37:58.525Z,0.00
2022-07-29T21:39:02.988Z,0.00
2022-07-29T21:40:07.461Z,0.00
2022-07-29T21:41:11.964Z,0.00
2022-07-29T21:42:16.426Z,0.00
2022-07-29T21:43:20.895Z,0.00
2022-07-29T21:44:25.396Z,0.00
2022-07-29T21:45:29.884Z,0.00
2022-07-29T21:46:34.406Z,0.00
2022-07-29T21:47:38.846Z,0.00
2022-07-29T21:48:44.679Z,0.00
2022-07-29T21:49:47.775Z,0.00
2022-07-29T21:50:52.266Z,0.00
2022-07-29T21:51:56.731Z,0.00
2022-07-29T21:53:01.197Z,0.00
2022-07-29T21:54:05.657Z,0.00
2022-07-29T21:55:10.686Z,0.00
2022-07-29T21:56:15.267Z,0.00
2022-07-29T21:57:19.108Z,0.00
2022-07-29T21:59:49.543Z,0.00
2022-07-29T22:00:54.275Z,0.00
2022-07-29T22:01:58.558Z,0.00
2022-07-29T22:03:03.028Z,0.00
2022-07-29T22:04:07.581Z,0.00
2022-07-29T22:05:11.977Z,0.00
2022-07-29T22:06:18.114Z,0.00
2022-07-29T22:07:20.947Z,0.00
2022-07-29T22:08:25.416Z,0.00
2022-07-29T22:09:29.885Z,0.00
2022-07-29T22:10:34.379Z,0.00
2022-07-29T22:11:38.848Z,0.00
2022-07-29T22:12:43.322Z,0.00
2022-07-29T22:13:47.785Z,0.00
2022-07-29T22:14:52.256Z,0.00
2022-07-29T22:15:56.756Z,0.00
2022-07-29T22:17:01.600Z,0.00
2022-07-29T22:18:05.698Z,0.00
2022-07-29T22:19:10.216Z,0.00
2022-07-29T22:20:14.696Z,0.00
2022-07-29T22:21:19.189Z,0.00
2022-07-29T22:22:23.668Z,0.00
2022-07-29T22:23:28.148Z,0.00
2022-07-29T22:24:32.628Z,0.00
2022-07-29T22:25:37.220Z,0.00
2022-07-29T22:26:41.638Z,0.00
2022-07-29T22:27:46.117Z,0.00
2022-07-29T22:28:50.609Z,0.00
2022-07-29T22:29:55.089Z,0.00
2022-07-29T22:30:59.646Z,0.00
2022-07-29T22:32:04.099Z,0.00
2022-07-29T22:33:08.560Z,0.00
2022-07-29T22:34:13.076Z,0.00
2022-07-29T22:35:17.538Z,0.00
2022-07-29T22:36:22.049Z,0.00
2022-07-29T22:37:26.529Z,0.00
2022-07-29T22:38:31.020Z,0.00
2022-07-29T22:39:35.501Z,0.00
2022-07-29T22:40:40.040Z,0.00
2022-07-29T22:41:44.511Z,0.00
2022-07-29T22:42:48.990Z,0.00
2022-07-29T22:43:53.481Z,0.00
2022-07-29T22:44:57.961Z,0.00
2022-07-29T22:46:02.520Z,0.00
2022-07-29T22:47:06.942Z,0.00
2022-07-29T22:48:11.491Z,0.00
2022-07-29T22:49:15.983Z,0.00
2022-07-29T22:50:20.403Z,0.00
2022-07-29T22:51:24.901Z,0.00
2022-07-29T22:52:29.420Z,0.00
2022-07-29T22:53:33.882Z,0.00
2022-07-29T22:54:38.372Z,0.00
2022-07-29T22:55:42.875Z,0.00
2022-07-29T22:56:47.345Z,0.00
2022-07-29T22:57:51.845Z,0.00
2022-07-29T22:58:56.334Z,0.00
2022-07-29T23:00:00.835Z,0.00
2022-07-29T23:01:05.383Z,0.00
2022-07-29T23:02:09.821Z,0.00
2022-07-29T23:03:14.337Z,0.00
2022-07-29T23:04:18.772Z,0.00
2022-07-29T23:05:23.287Z,0.00
2022-07-29T23:06:27.785Z,0.00
2022-07-29T23:07:32.252Z,0.00
2022-07-29T23:08:36.734Z,0.00
2022-07-29T23:09:41.240Z,0.00
2022-07-29T23:10:45.717Z,0.00
2022-07-29T23:11:50.224Z,0.00
2022-07-29T23:12:54.697Z,0.00
2022-07-29T23:13:59.187Z,0.00
2022-07-29T23:15:04.475Z,0.00
2022-07-29T23:16:08.157Z,0.00
2022-07-29T23:17:12.685Z,0.00
2022-07-29T23:18:17.124Z,0.00
2022-07-29T23:19:21.625Z,0.00
2022-07-29T23:20:26.105Z,0.00
2022-07-29T23:21:30.617Z,0.00
2022-07-29T23:22:35.086Z,0.00
2022-07-29T23:23:39.568Z,0.00
2022-07-29T23:24:44.047Z,0.00
2022-07-29T23:25:48.527Z,0.00
2022-07-29T23:26:53.017Z,0.00
2022-07-29T23:27:57.499Z,0.00
2022-07-29T23:29:01.987Z,0.00
2022-07-29T23:30:06.466Z,0.00
2022-07-29T23:31:10.997Z,0.00
2022-07-29T23:32:15.450Z,0.00
2022-07-29T23:33:19.911Z,0.00
2022-07-29T23:34:24.388Z,0.00
2022-07-29T23:35:28.881Z,0.00
2022-07-29T23:36:33.350Z,0.00
2022-07-29T23:37:37.849Z,0.00
2022-07-29T23:38:42.319Z,0.00
2022-07-29T23:39:46.790Z,0.00
2022-07-29T23:40:51.271Z,0.00
2022-07-29T23:41:55.770Z,0.00
2022-07-29T23:43:00.263Z,0.00
2022-07-29T23:44:04.730Z,0.00
2022-07-29T23:46:35.206Z,0.00
2022-07-29T23:47:39.646Z,0.00
2022-07-29T23:48:44.137Z,0.00
2022-07-29T23:49:48.564Z,0.00
2022-07-29T23:50:53.024Z,0.00
2022-07-29T23:51:57.492Z,0.00
2022-07-29T23:53:01.944Z,0.00
2022-07-29T23:54:06.399Z,0.00
2022-07-29T23:55:37.464Z,0.00
2022-07-29T23:56:15.312Z,0.00
2022-07-29T23:57:19.784Z,0.00
2022-07-29T23:58:24.246Z,0.00
2022-07-29T23:59:28.694Z,0.00
